createdAt,value
2023-03-22T00:00:59.793Z,99654.23
2023-03-22T00:02:03.904Z,99655.19
2023-03-22T00:03:06.272Z,99656.16
2023-03-22T00:04:11.281Z,99655.41
2023-03-22T00:05:14.777Z,99650.07
2023-03-22T00:06:19.738Z,99655.41
2023-03-22T00:07:24.123Z,99652.00
2023-03-22T00:08:26.359Z,99646.88
2023-03-22T00:09:28.495Z,99659.27
2023-03-22T00:10:35.571Z,99653.30
2023-03-22T00:11:38.335Z,99660.34
2023-03-22T00:12:46.025Z,99664.84
2023-03-22T00:13:48.253Z,99657.78
2023-03-22T00:14:52.536Z,99664.84
2023-03-22T00:15:58.581Z,99663.13
2023-03-22T00:17:05.137Z,99669.44
2023-03-22T00:18:07.934Z,99674.67
2023-03-22T00:19:10.038Z,99665.09
2023-03-22T00:20:12.460Z,99666.77
2023-03-22T00:21:17.071Z,99663.23
2023-03-22T00:22:21.268Z,99665.91
2023-03-22T00:23:28.571Z,99664.09
2023-03-22T00:24:34.333Z,99665.91
2023-03-22T00:25:41.801Z,99666.77
2023-03-22T00:26:47.110Z,99667.02
2023-03-22T00:27:52.919Z,99665.09
2023-03-22T00:28:56.538Z,99668.72
2023-03-22T00:30:04.257Z,99668.83
2023-03-22T00:31:08.275Z,99664.34
2023-03-22T00:32:10.512Z,99667.02
2023-03-22T00:33:14.989Z,99670.65
2023-03-22T00:34:17.644Z,99661.89
2023-03-22T00:35:21.400Z,99666.37
2023-03-22T00:36:29.993Z,99665.52
2023-03-22T00:37:32.735Z,99672.80
2023-03-22T00:38:45.332Z,99664.78
2023-03-22T00:39:42.381Z,99665.74
2023-03-22T00:40:53.858Z,99667.56
2023-03-22T00:41:56.259Z,99662.33
2023-03-22T00:42:58.951Z,99665.00
2023-03-22T00:44:03.105Z,99659.66
2023-03-22T00:45:09.267Z,99671.30
2023-03-22T00:46:14.165Z,99670.45
2023-03-22T00:47:16.528Z,99662.55
2023-03-22T00:48:18.590Z,99667.06
2023-03-22T00:49:20.868Z,99666.20
2023-03-22T00:50:23.132Z,99673.23
2023-03-22T00:51:25.440Z,99664.50
2023-03-22T00:52:29.506Z,99663.64
2023-03-22T00:53:33.077Z,99668.98
2023-03-22T00:54:35.235Z,99663.97
2023-03-22T00:55:37.547Z,99668.35
2023-03-22T00:56:40.884Z,99673.69
2023-03-22T00:57:45.242Z,99666.64
2023-03-22T00:58:47.909Z,99668.35
2023-03-22T00:59:50.897Z,99671.98
2023-03-22T01:00:55.159Z,99674.77
2023-03-22T01:01:59.366Z,99667.61
2023-03-22T01:03:01.708Z,99670.38
2023-03-22T01:04:04.562Z,99660.66
2023-03-22T01:05:07.901Z,99673.16
2023-03-22T01:06:11.262Z,99669.64
2023-03-22T01:07:16.980Z,99668.78
2023-03-22T01:08:19.809Z,99677.75
2023-03-22T01:09:23.252Z,99671.70
2023-03-22T01:10:26.322Z,99676.30
2023-03-22T01:11:28.949Z,99668.17
2023-03-22T01:12:31.604Z,99668.03
2023-03-22T01:13:35.694Z,99671.70
2023-03-22T01:14:39.017Z,99670.70
2023-03-22T01:15:41.490Z,99669.03
2023-03-22T01:16:44.465Z,99660.88
2023-03-22T01:17:46.811Z,99672.55
2023-03-22T01:18:49.155Z,99669.88
2023-03-22T01:19:51.963Z,99661.02
2023-03-22T01:20:55.346Z,99670.70
2023-03-22T01:21:57.593Z,99664.65
2023-03-22T01:23:02.048Z,99671.91
2023-03-22T01:24:04.953Z,99674.69
2023-03-22T01:25:08.498Z,99677.47
2023-03-22T01:26:13.136Z,99677.47
2023-03-22T01:27:16.342Z,99669.46
2023-03-22T01:28:18.651Z,99675.55
2023-03-22T01:29:21.615Z,99673.73
2023-03-22T01:30:23.905Z,99670.20
2023-03-22T01:31:27.955Z,99670.20
2023-03-22T01:32:31.033Z,99678.22
2023-03-22T01:33:33.366Z,99665.83
2023-03-22T01:34:35.667Z,99677.47
2023-03-22T01:35:39.234Z,99669.46
2023-03-22T01:36:43.701Z,99679.28
2023-03-22T01:37:49.983Z,99675.77
2023-03-22T01:38:52.668Z,99677.58
2023-03-22T01:39:56.288Z,99678.64
2023-03-22T01:40:59.011Z,99678.64
2023-03-22T01:42:03.270Z,99682.06
2023-03-22T01:44:29.101Z,99683.09
2023-03-22T01:45:38.086Z,99688.08
2023-03-22T01:46:45.803Z,99694.16
2023-03-22T01:47:56.542Z,99688.69
2023-03-22T01:49:02.424Z,99693.20
2023-03-22T01:50:08.102Z,99694.66
2023-03-22T01:51:14.082Z,99697.23
2023-03-22T01:52:18.581Z,99691.03
2023-03-22T01:53:33.186Z,99694.45
2023-03-22T01:54:45.973Z,99692.74
2023-03-22T01:56:10.081Z,99699.80
2023-03-22T01:57:12.811Z,99697.13
2023-03-22T01:58:17.346Z,99700.75
2023-03-22T01:59:30.436Z,99696.27
2023-03-22T02:00:36.768Z,99702.56
2023-03-22T02:01:43.943Z,99705.34
2023-03-22T02:02:49.791Z,99688.69
2023-03-22T02:04:04.127Z,99695.02
2023-03-22T02:05:06.895Z,99693.30
2023-03-22T02:06:10.690Z,99696.83
2023-03-22T02:07:15.869Z,99700.45
2023-03-22T02:08:20.321Z,99700.45
2023-03-22T02:09:27.266Z,99699.61
2023-03-22T02:10:31.039Z,99698.00
2023-03-22T02:11:39.297Z,99705.05
2023-03-22T02:13:09.706Z,99698.96
2023-03-22T02:14:53.839Z,99707.93
2023-03-22T02:16:24.162Z,99702.38
2023-03-22T02:17:35.243Z,99705.80
2023-03-22T02:20:32.304Z,99707.59
2023-03-22T02:22:13.992Z,99702.80
2023-03-22T02:23:31.596Z,99708.89
2023-03-22T02:24:42.089Z,99708.78
2023-03-22T02:27:32.317Z,99710.70
2023-03-22T02:30:11.608Z,99701.73
2023-03-22T02:31:32.680Z,99708.14
2023-03-22T02:33:04.729Z,99713.69
2023-03-22T02:34:24.494Z,99709.20
2023-03-22T02:35:39.151Z,99712.84
2023-03-22T02:36:51.157Z,99713.94
2023-03-22T02:38:15.634Z,99715.00
2023-03-22T02:39:55.096Z,99716.05
2023-03-22T02:42:44.358Z,99707.39
2023-03-22T02:43:53.229Z,99704.53
2023-03-22T02:45:01.963Z,99709.77
2023-03-22T02:46:16.837Z,99718.84
2023-03-22T02:47:26.225Z,99716.17
2023-03-22T02:48:55.637Z,99717.98
2023-03-22T02:50:07.473Z,99719.05
2023-03-22T02:51:16.133Z,99718.19
2023-03-22T02:52:41.179Z,99720.00
2023-03-22T02:53:50.358Z,99719.22
2023-03-22T02:55:14.546Z,99724.55
2023-03-22T02:56:23.722Z,99719.45
2023-03-22T02:57:44.502Z,99722.12
2023-03-22T02:58:50.427Z,99725.84
2023-03-22T02:59:54.280Z,99727.66
2023-03-22T03:01:02.836Z,99728.83
2023-03-22T03:02:09.057Z,99727.11
2023-03-22T03:03:13.380Z,99726.26
2023-03-22T03:04:19.222Z,99729.88
2023-03-22T03:05:24.295Z,99731.70
2023-03-22T03:06:31.500Z,99728.27
2023-03-22T03:07:34.944Z,99725.60
2023-03-22T03:08:40.932Z,99736.27
2023-03-22T03:09:44.646Z,99734.59
2023-03-22T03:10:48.182Z,99738.94
2023-03-22T03:11:56.581Z,99738.12
2023-03-22T03:12:58.724Z,99737.36
2023-03-22T03:14:01.089Z,99738.22
2023-03-22T03:16:36.882Z,99740.80
2023-03-22T03:19:46.570Z,99741.75
2023-03-22T03:21:09.097Z,99752.72
2023-03-22T03:24:12.170Z,99746.98
2023-03-22T03:25:34.565Z,99754.42
2023-03-22T03:28:25.788Z,99751.47
2023-03-22T03:29:32.684Z,99760.72
2023-03-22T03:30:38.850Z,99750.80
2023-03-22T03:31:50.947Z,99760.62
2023-03-22T03:33:00.159Z,99760.52
2023-03-22T03:34:24.962Z,99750.80
2023-03-22T03:35:30.818Z,99763.18
2023-03-22T03:36:37.223Z,99764.89
2023-03-22T03:37:43.175Z,99752.41
2023-03-22T03:38:49.328Z,99767.56
2023-03-22T03:41:12.466Z,99756.80
2023-03-22T03:42:17.084Z,99773.00
2023-03-22T03:43:21.868Z,99767.56
2023-03-22T03:44:25.006Z,99764.04
2023-03-22T03:45:28.016Z,99763.94
2023-03-22T03:46:34.286Z,99766.61
2023-03-22T03:47:38.003Z,99764.89
2023-03-22T03:48:44.769Z,99772.90
2023-03-22T03:49:47.106Z,99770.23
2023-03-22T03:50:52.368Z,99764.04
2023-03-22T03:51:55.729Z,99770.23
2023-03-22T03:52:58.603Z,99767.56
2023-03-22T03:54:00.778Z,99766.61
2023-03-22T03:55:04.162Z,99756.80
2023-03-22T03:56:08.937Z,99765.75
2023-03-22T03:57:12.838Z,99764.89
2023-03-22T03:58:15.136Z,99764.89
2023-03-22T03:59:19.201Z,99769.27
2023-03-22T04:00:22.861Z,99774.61
2023-03-22T04:01:26.858Z,99766.61
2023-03-22T04:02:34.322Z,99772.80
2023-03-22T04:03:36.672Z,99770.23
2023-03-22T04:04:45.117Z,99768.28
2023-03-22T04:05:47.499Z,99771.94
2023-03-22T04:06:50.109Z,99762.23
2023-03-22T04:07:54.404Z,99771.94
2023-03-22T04:08:56.495Z,99767.56
2023-03-22T04:10:01.997Z,99770.23
2023-03-22T04:11:06.561Z,99769.38
2023-03-22T04:12:09.331Z,99769.48
2023-03-22T04:13:11.875Z,99771.39
2023-03-22T04:14:15.047Z,99768.72
2023-03-22T04:15:17.729Z,99769.48
2023-03-22T04:16:22.134Z,99771.39
2023-03-22T04:17:28.155Z,99773.09
2023-03-22T04:18:30.836Z,99770.43
2023-03-22T04:19:34.630Z,99769.58
2023-03-22T04:20:37.568Z,99773.20
2023-03-22T04:21:40.284Z,99771.28
2023-03-22T04:22:43.434Z,99772.14
2023-03-22T04:23:45.721Z,99765.85
2023-03-22T04:24:49.716Z,99769.48
2023-03-22T04:25:52.444Z,99779.29
2023-03-22T04:26:56.650Z,99773.09
2023-03-22T04:28:00.720Z,99777.47
2023-03-22T04:29:05.446Z,99776.72
2023-03-22T04:30:12.283Z,99779.48
2023-03-22T04:31:34.008Z,99772.44
2023-03-22T04:32:38.932Z,99780.44
2023-03-22T04:33:41.240Z,99778.73
2023-03-22T04:34:54.502Z,99784.92
2023-03-22T04:35:57.580Z,99780.44
2023-03-22T04:37:02.415Z,99786.63
2023-03-22T04:38:13.032Z,99786.63
2023-03-22T04:39:15.705Z,99789.30
2023-03-22T04:40:20.690Z,99781.30
2023-03-22T04:41:24.840Z,99782.16
2023-03-22T04:42:29.264Z,99788.34
2023-03-22T04:43:33.759Z,99781.30
2023-03-22T04:44:37.800Z,99783.01
2023-03-22T04:45:40.942Z,99782.16
2023-03-22T04:46:43.731Z,99787.48
2023-03-22T04:47:46.124Z,99787.48
2023-03-22T04:48:49.004Z,99790.05
2023-03-22T04:49:51.658Z,99794.53
2023-03-22T04:50:54.244Z,99797.10
2023-03-22T04:51:58.417Z,99799.67
2023-03-22T04:53:08.118Z,99798.72
2023-03-22T04:54:10.936Z,99796.91
2023-03-22T04:55:15.102Z,99796.91
2023-03-22T04:56:18.523Z,99799.57
2023-03-22T04:57:21.386Z,99801.38
2023-03-22T04:58:25.617Z,99802.14
2023-03-22T04:59:27.993Z,99800.30
2023-03-22T05:00:31.018Z,99801.16
2023-03-22T05:01:34.465Z,99800.20
2023-03-22T05:02:40.756Z,99802.00
2023-03-22T05:03:45.594Z,99811.72
2023-03-22T05:04:48.285Z,99811.72
2023-03-22T05:07:06.834Z,99809.93
2023-03-22T05:08:14.231Z,99814.62
2023-03-22T05:09:16.949Z,99810.86
2023-03-22T05:10:19.769Z,99815.14
2023-03-22T05:11:22.474Z,99820.28
2023-03-22T05:12:26.464Z,99815.90
2023-03-22T05:13:30.596Z,99811.32
2023-03-22T05:14:33.610Z,99814.75
2023-03-22T05:15:38.510Z,99815.50
2023-03-22T05:16:42.905Z,99822.55
2023-03-22T05:17:46.189Z,99819.75
2023-03-22T05:18:48.976Z,99820.60
2023-03-22T05:19:55.399Z,99817.02
2023-03-22T05:20:59.679Z,99821.39
2023-03-22T05:22:03.059Z,99821.39
2023-03-22T05:23:10.302Z,99826.73
2023-03-22T05:24:15.039Z,99823.86
2023-03-22T05:25:19.112Z,99825.77
2023-03-22T05:26:22.942Z,99819.38
2023-03-22T05:27:26.022Z,99821.09
2023-03-22T05:28:28.751Z,99818.32
2023-03-22T05:29:32.925Z,99826.23
2023-03-22T05:30:37.787Z,99830.70
2023-03-22T05:31:42.405Z,99821.74
2023-03-22T05:32:44.500Z,99822.70
2023-03-22T05:35:01.666Z,99822.61
2023-03-22T05:36:06.352Z,99830.70
2023-03-22T05:37:10.488Z,99828.80
2023-03-22T05:38:21.568Z,99829.52
2023-03-22T05:39:25.741Z,99833.89
2023-03-22T05:40:29.473Z,99836.56
2023-03-22T05:41:31.933Z,99836.47
2023-03-22T05:42:35.814Z,99832.84
2023-03-22T05:43:41.457Z,99830.07
2023-03-22T05:44:45.394Z,99837.12
2023-03-22T05:45:49.247Z,99837.88
2023-03-22T05:48:16.904Z,99825.30
2023-03-22T05:49:19.965Z,99837.98
2023-03-22T05:50:24.317Z,99833.29
2023-03-22T05:51:26.713Z,99829.66
2023-03-22T05:52:29.291Z,99830.28
2023-03-22T05:53:33.375Z,99830.19
2023-03-22T05:54:43.575Z,99827.31
2023-03-22T05:55:45.862Z,99825.39
2023-03-22T05:56:49.211Z,99833.30
2023-03-22T05:57:51.512Z,99835.02
2023-03-22T05:58:55.109Z,99840.25
2023-03-22T05:59:57.735Z,99834.91
2023-03-22T06:01:10.659Z,99841.86
2023-03-22T06:02:14.849Z,99841.72
2023-03-22T06:03:17.869Z,99837.14
2023-03-22T06:04:22.880Z,99854.87
2023-03-22T06:05:30.835Z,99855.30
2023-03-22T06:06:33.330Z,99854.99
2023-03-22T06:07:39.369Z,99859.88
2023-03-22T06:08:43.484Z,99859.67
2023-03-22T06:09:47.069Z,99861.28
2023-03-22T06:10:53.307Z,99865.56
2023-03-22T06:11:57.649Z,99855.73
2023-03-22T06:12:59.896Z,99863.64
2023-03-22T06:14:03.897Z,99872.37
2023-03-22T06:15:09.749Z,99869.70
2023-03-22T06:16:22.875Z,99868.73
2023-03-22T06:17:25.421Z,99875.80
2023-03-22T06:18:28.411Z,99872.16
2023-03-22T06:19:35.565Z,99876.44
2023-03-22T06:20:40.115Z,99873.66
2023-03-22T06:21:45.002Z,99877.09
2023-03-22T06:22:48.586Z,99887.56
2023-03-22T06:23:52.433Z,99871.28
2023-03-22T06:24:56.029Z,99874.70
2023-03-22T06:26:00.204Z,99878.02
2023-03-22T06:27:02.921Z,99872.56
2023-03-22T06:28:08.615Z,99874.09
2023-03-22T06:29:10.745Z,99869.47
2023-03-22T06:30:13.948Z,99870.21
2023-03-22T06:31:35.047Z,99877.16
2023-03-22T06:32:39.188Z,99867.11
2023-03-22T06:33:42.537Z,99876.84
2023-03-22T06:34:47.311Z,99877.70
2023-03-22T06:35:50.091Z,99876.63
2023-03-22T06:36:54.810Z,99876.63
2023-03-22T06:37:59.487Z,99881.02
2023-03-22T06:39:01.822Z,99874.67
2023-03-22T06:40:05.409Z,99878.95
2023-03-22T06:41:08.041Z,99886.86
2023-03-22T06:42:10.331Z,99884.94
2023-03-22T06:43:13.799Z,99880.44
2023-03-22T06:44:18.507Z,99882.15
2023-03-22T06:45:26.671Z,99883.01
2023-03-22T06:46:29.967Z,99881.30
2023-03-22T06:47:34.246Z,99880.33
2023-03-22T06:48:37.610Z,99879.48
2023-03-22T06:49:42.259Z,99879.59
2023-03-22T06:50:46.714Z,99883.22
2023-03-22T06:51:57.405Z,99880.55
2023-03-22T06:53:01.499Z,99884.94
2023-03-22T06:54:04.040Z,99886.75
2023-03-22T06:55:09.164Z,99891.14
2023-03-22T06:56:11.824Z,99887.50
2023-03-22T06:57:15.936Z,99883.01
2023-03-22T06:58:18.143Z,99884.72
2023-03-22T06:59:20.399Z,99885.57
2023-03-22T07:00:22.837Z,99882.79
2023-03-22T07:01:24.921Z,99882.79
2023-03-22T07:02:27.293Z,99879.15
2023-03-22T07:05:01.455Z,99873.86
2023-03-22T07:06:10.825Z,99878.84
2023-03-22T07:07:14.949Z,99883.22
2023-03-22T07:08:21.887Z,99878.73
2023-03-22T07:09:25.330Z,99879.59
2023-03-22T07:10:29.478Z,99883.22
2023-03-22T07:11:32.288Z,99880.55
2023-03-22T07:12:36.955Z,99879.59
2023-03-22T07:13:42.076Z,99881.30
2023-03-22T07:14:46.487Z,99883.97
2023-03-22T07:16:01.050Z,99886.53
2023-03-22T07:17:18.252Z,99887.39
2023-03-22T07:18:21.069Z,99889.73
2023-03-22T07:19:23.360Z,99890.45
2023-03-22T07:20:26.849Z,99891.31
2023-03-22T07:21:29.644Z,99887.67
2023-03-22T07:22:35.066Z,99892.80
2023-03-22T07:23:37.186Z,99890.98
2023-03-22T07:24:53.790Z,99895.37
2023-03-22T07:25:47.566Z,99889.91
2023-03-22T07:26:51.865Z,99892.59
2023-03-22T07:27:55.984Z,99900.50
2023-03-22T07:28:58.847Z,99893.22
2023-03-22T07:30:07.209Z,99909.17
2023-03-22T07:31:12.762Z,99899.18
2023-03-22T07:32:19.766Z,99901.75
2023-03-22T07:33:26.899Z,99900.67
2023-03-22T07:34:31.042Z,99899.59
2023-03-22T07:35:36.124Z,99899.38
2023-03-22T07:36:39.884Z,99898.30
2023-03-22T07:37:44.788Z,99902.44
2023-03-22T07:38:51.591Z,99901.25
2023-03-22T07:39:55.801Z,99893.97
2023-03-22T07:40:58.072Z,99893.74
2023-03-22T07:42:02.834Z,99891.78
2023-03-22T07:43:09.892Z,99889.84
2023-03-22T07:44:17.941Z,99893.48
2023-03-22T07:45:23.300Z,99893.27
2023-03-22T07:47:53.126Z,99890.41
2023-03-22T07:49:06.090Z,99895.09
2023-03-22T07:50:27.278Z,99895.61
2023-03-22T07:51:31.457Z,99897.69
2023-03-22T07:52:33.667Z,99893.59
2023-03-22T07:53:35.877Z,99891.80
2023-03-22T07:54:38.663Z,99893.69
2023-03-22T07:55:42.705Z,99895.30
2023-03-22T07:56:45.203Z,99892.79
2023-03-22T07:57:47.988Z,99894.27
2023-03-22T07:58:50.297Z,99896.72
2023-03-22T07:59:53.495Z,99891.86
2023-03-22T08:00:56.671Z,99890.02
2023-03-22T08:02:17.121Z,99895.86
2023-03-22T08:03:21.281Z,99888.16
2023-03-22T08:04:27.385Z,99888.03
2023-03-22T08:05:34.740Z,99891.26
2023-03-22T08:06:38.330Z,99878.27
2023-03-22T08:07:40.921Z,99888.70
2023-03-22T08:08:46.214Z,99887.42
2023-03-22T08:09:48.615Z,99886.15
2023-03-22T08:10:50.990Z,99891.20
2023-03-22T08:11:53.769Z,99891.97
2023-03-22T08:12:58.551Z,99893.03
2023-03-22T08:14:01.573Z,99895.63
2023-03-22T08:15:10.448Z,99892.85
2023-03-22T08:16:13.707Z,99891.08
2023-03-22T08:17:19.031Z,99894.79
2023-03-22T08:18:22.893Z,99896.09
2023-03-22T08:19:25.254Z,99896.25
2023-03-22T08:20:28.813Z,99894.61
2023-03-22T08:21:34.114Z,99892.95
2023-03-22T08:22:39.646Z,99891.27
2023-03-22T08:24:00.259Z,99896.95
2023-03-22T08:25:21.497Z,99897.23
2023-03-22T08:26:25.217Z,99894.14
2023-03-22T08:27:29.345Z,99899.25
2023-03-22T08:28:37.007Z,99906.08
2023-03-22T08:29:45.338Z,99899.84
2023-03-22T08:30:54.579Z,99900.69
2023-03-22T08:32:01.682Z,99896.18
2023-03-22T08:33:05.113Z,99893.63
2023-03-22T08:34:10.200Z,99895.18
2023-03-22T08:35:12.824Z,99898.00
2023-03-22T08:36:18.798Z,99887.89
2023-03-22T08:37:22.943Z,99896.38
2023-03-22T08:38:26.731Z,99900.31
2023-03-22T08:39:29.138Z,99898.30
2023-03-22T08:40:33.395Z,99903.25
2023-03-22T08:41:39.888Z,99897.67
2023-03-22T08:42:42.877Z,99900.23
2023-03-22T08:43:45.127Z,99900.55
2023-03-22T08:44:48.068Z,99896.59
2023-03-22T08:45:50.370Z,99902.27
2023-03-22T08:46:54.407Z,99904.52
2023-03-22T08:47:58.194Z,99901.44
2023-03-22T08:49:01.044Z,99898.92
2023-03-22T08:50:11.179Z,99896.09
2023-03-22T08:51:20.858Z,99898.83
2023-03-22T08:52:28.572Z,99901.37
2023-03-22T08:53:32.671Z,99895.02
2023-03-22T08:54:38.394Z,99895.90
2023-03-22T08:55:40.871Z,99891.64
2023-03-22T08:56:52.099Z,99894.48
2023-03-22T08:58:03.504Z,99895.89
2023-03-22T08:59:09.864Z,99896.74
2023-03-22T09:00:18.712Z,99896.74
2023-03-22T09:02:44.121Z,99892.75
2023-03-22T09:03:47.206Z,99895.59
2023-03-22T09:04:49.797Z,99898.43
2023-03-22T09:05:52.988Z,99892.44
2023-03-22T09:06:55.574Z,99893.57
2023-03-22T09:08:05.871Z,99892.44
2023-03-22T09:09:04.243Z,99897.23
2023-03-22T09:10:09.203Z,99896.09
2023-03-22T09:11:13.037Z,99891.27
2023-03-22T09:12:17.178Z,99890.12
2023-03-22T09:13:20.120Z,99893.53
2023-03-22T09:14:24.370Z,99896.61
2023-03-22T09:15:27.125Z,99893.48
2023-03-22T09:16:31.374Z,99893.91
2023-03-22T09:17:34.651Z,99897.17
2023-03-22T09:18:39.756Z,99895.17
2023-03-22T09:19:47.660Z,99898.72
2023-03-22T09:20:51.129Z,99897.88
2023-03-22T09:21:55.252Z,99895.17
2023-03-22T09:23:02.332Z,99895.31
2023-03-22T09:24:06.126Z,99899.86
2023-03-22T09:25:14.456Z,99899.86
2023-03-22T09:26:18.666Z,99907.22
2023-03-22T09:27:23.116Z,99894.19
2023-03-22T09:28:26.149Z,99893.63
2023-03-22T09:29:30.274Z,99900.31
2023-03-22T09:30:33.799Z,99896.23
2023-03-22T09:31:37.743Z,99895.80
2023-03-22T09:32:47.742Z,99900.49
2023-03-22T09:33:50.910Z,99903.80
2023-03-22T09:34:54.945Z,99900.67
2023-03-22T09:35:58.736Z,99902.95
2023-03-22T09:37:01.040Z,99904.39
2023-03-22T09:38:05.550Z,99902.97
2023-03-22T09:39:08.120Z,99902.41
2023-03-22T09:40:13.112Z,99910.91
2023-03-22T09:42:46.684Z,99902.41
2023-03-22T09:43:53.659Z,99897.61
2023-03-22T09:45:02.145Z,99906.69
2023-03-22T09:46:09.159Z,99900.59
2023-03-22T09:47:18.698Z,99899.73
2023-03-22T09:48:25.601Z,99899.88
2023-03-22T09:49:38.445Z,99895.58
2023-03-22T09:50:41.637Z,99907.53
2023-03-22T09:51:50.185Z,99908.80
2023-03-22T09:52:54.490Z,99908.36
2023-03-22T09:54:06.077Z,99903.55
2023-03-22T09:55:15.324Z,99906.80
2023-03-22T09:56:26.652Z,99911.74
2023-03-22T09:57:35.429Z,99914.88
2023-03-22T09:58:50.600Z,99908.91
2023-03-22T09:59:57.767Z,99907.48
2023-03-22T10:02:48.484Z,99903.97
2023-03-22T10:04:08.512Z,99907.88
2023-03-22T10:05:22.793Z,99902.94
2023-03-22T10:06:28.311Z,99902.09
2023-03-22T10:07:37.615Z,99908.45
2023-03-22T10:10:22.420Z,99901.23
2023-03-22T10:11:45.760Z,99905.75
2023-03-22T10:12:55.318Z,99896.69
2023-03-22T10:14:01.100Z,99901.09
2023-03-22T10:16:48.638Z,99891.04
2023-03-22T10:17:56.655Z,99905.84
2023-03-22T10:19:10.144Z,99897.77
2023-03-22T10:20:42.496Z,99896.09
2023-03-22T10:21:53.918Z,99899.61
2023-03-22T10:23:04.376Z,99894.39
2023-03-22T10:24:25.548Z,99891.83
2023-03-22T10:25:39.627Z,99900.04
2023-03-22T10:26:48.352Z,99900.04
2023-03-22T10:27:52.173Z,99892.95
2023-03-22T10:29:14.364Z,99889.54
2023-03-22T10:30:25.549Z,99898.60
2023-03-22T10:31:33.756Z,99896.89
2023-03-22T10:32:57.887Z,99896.89
2023-03-22T10:34:06.124Z,99899.72
2023-03-22T10:35:14.308Z,99899.00
2023-03-22T10:36:19.645Z,99899.98
2023-03-22T10:38:57.501Z,99894.92
2023-03-22T10:40:03.677Z,99899.34
2023-03-22T10:41:09.909Z,99902.76
2023-03-22T10:42:15.667Z,99893.83
2023-03-22T10:43:21.444Z,99892.98
2023-03-22T10:44:27.721Z,99907.55
2023-03-22T10:45:35.453Z,99896.09
2023-03-22T10:46:42.346Z,99899.64
2023-03-22T10:49:01.964Z,99897.24
2023-03-22T10:50:09.343Z,99903.55
2023-03-22T10:51:17.372Z,99899.02
2023-03-22T10:52:39.572Z,99896.47
2023-03-22T10:53:49.674Z,99900.99
2023-03-22T10:55:01.270Z,99897.45
2023-03-22T10:56:02.010Z,99895.02
2023-03-22T10:57:06.263Z,99891.61
2023-03-22T10:58:22.083Z,99900.66
2023-03-22T10:59:51.079Z,99896.39
2023-03-22T11:00:58.092Z,99893.15
2023-03-22T11:02:01.512Z,99894.13
2023-03-22T11:03:06.468Z,99898.92
2023-03-22T11:04:12.775Z,99896.36
2023-03-22T11:08:04.152Z,99889.27
2023-03-22T11:09:24.767Z,99889.16
2023-03-22T11:10:34.104Z,99891.84
2023-03-22T11:11:40.947Z,99890.86
2023-03-22T11:12:55.012Z,99897.09
2023-03-22T11:14:05.452Z,99894.53
2023-03-22T11:16:56.526Z,99891.80
2023-03-22T11:20:42.974Z,99880.23
2023-03-22T11:21:47.894Z,99888.64
2023-03-22T11:22:52.565Z,99895.59
2023-03-22T11:24:04.992Z,99899.13
2023-03-22T11:25:27.629Z,99889.23
2023-03-22T11:59:14.258Z,99868.41
2023-03-22T12:00:23.225Z,99870.79
2023-03-22T12:01:45.331Z,99867.38
2023-03-22T12:02:57.224Z,99869.08
2023-03-22T12:04:03.473Z,99871.64
2023-03-22T12:06:34.098Z,99866.09
2023-03-22T12:07:38.282Z,99873.48
2023-03-22T12:10:03.108Z,99869.77
2023-03-22T12:11:08.297Z,99865.41
2023-03-22T12:12:23.461Z,99865.28
2023-03-22T12:13:33.118Z,99868.57
2023-03-22T12:16:01.980Z,99868.84
2023-03-22T12:18:24.671Z,99865.30
2023-03-22T12:21:10.834Z,99860.26
2023-03-22T12:22:22.349Z,99859.74
2023-03-22T12:23:30.673Z,99865.84
2023-03-22T12:24:33.380Z,99857.52
2023-03-22T12:25:37.513Z,99859.92
2023-03-22T12:26:40.198Z,99863.33
2023-03-22T12:27:48.026Z,99856.84
2023-03-22T12:28:56.850Z,99862.81
2023-03-22T12:30:03.274Z,99861.58
2023-03-22T12:31:08.221Z,99864.95
2023-03-22T12:32:16.939Z,99862.01
2023-03-22T12:34:46.404Z,99856.73
2023-03-22T12:35:52.214Z,99858.08
2023-03-22T12:36:57.480Z,99850.59
2023-03-22T12:38:03.261Z,99859.23
2023-03-22T12:41:39.782Z,99854.31
2023-03-22T12:44:05.038Z,99850.27
2023-03-22T12:45:19.894Z,99854.31
2023-03-22T12:47:42.224Z,99846.14
2023-03-22T12:51:28.766Z,99847.06
2023-03-22T12:52:50.737Z,99842.23
2023-03-22T12:53:57.061Z,99841.13
2023-03-22T12:55:01.405Z,99846.96
2023-03-22T12:56:09.330Z,99837.91
2023-03-22T12:57:15.193Z,99829.84
2023-03-22T12:58:24.659Z,99835.94
2023-03-22T12:59:31.113Z,99837.78
2023-03-22T13:00:55.124Z,99844.01
2023-03-22T13:03:41.797Z,99831.59
2023-03-22T13:05:05.233Z,99836.66
2023-03-22T13:07:53.145Z,99828.37
2023-03-22T13:09:05.048Z,99834.39
2023-03-22T13:12:20.951Z,99842.41
2023-03-22T13:13:27.356Z,99835.97
2023-03-22T13:15:01.682Z,99835.56
2023-03-22T13:16:13.732Z,99836.13
2023-03-22T13:17:28.069Z,99836.71
2023-03-22T13:18:43.786Z,99835.72
2023-03-22T13:20:02.807Z,99836.44
2023-03-22T13:21:19.676Z,99832.77
2023-03-22T13:22:28.530Z,99838.15
2023-03-22T13:23:31.768Z,99835.45
2023-03-22T13:24:34.700Z,99827.52
2023-03-22T13:26:01.283Z,99823.97
2023-03-22T13:27:06.375Z,99833.16
2023-03-22T13:28:25.937Z,99832.31
2023-03-22T13:29:37.465Z,99831.59
2023-03-22T13:32:14.771Z,99825.41
2023-03-22T13:33:29.685Z,99828.75
2023-03-22T13:34:47.824Z,99833.86
2023-03-22T13:36:09.176Z,99833.59
2023-03-22T13:38:45.558Z,99832.20
2023-03-22T13:39:52.270Z,99831.44
2023-03-22T13:42:40.665Z,99829.09
2023-03-22T13:43:49.471Z,99833.27
2023-03-22T13:44:55.543Z,99829.60
2023-03-22T13:46:12.979Z,99825.92
2023-03-22T13:47:46.100Z,99832.16
2023-03-22T13:48:55.801Z,99827.63
2023-03-22T13:50:02.132Z,99836.55
2023-03-22T13:52:29.652Z,99827.65
2023-03-22T13:53:34.998Z,99830.98
2023-03-22T13:54:44.238Z,99832.69
2023-03-22T13:55:49.982Z,99830.98
2023-03-22T13:57:29.984Z,99836.36
2023-03-22T13:58:52.370Z,99831.84
2023-03-22T14:00:13.392Z,99829.02
2023-03-22T14:01:14.648Z,99833.54
2023-03-22T14:02:27.683Z,99826.45
2023-03-22T14:03:36.369Z,99821.38
2023-03-22T14:06:25.563Z,99823.10
2023-03-22T14:07:41.785Z,99824.98
2023-03-22T14:08:46.722Z,99827.81
2023-03-22T14:09:56.606Z,99820.72
2023-03-22T14:14:27.156Z,99826.43
2023-03-22T14:15:33.171Z,99827.19
2023-03-22T14:16:41.754Z,99821.67
2023-03-22T14:17:50.064Z,99828.03
2023-03-22T14:18:54.507Z,99815.31
2023-03-22T14:19:58.244Z,99821.67
